Warning: Javascript must be enabled to use all the features on this page!


Page Loading - Please Wait...

Click to hideNews Bulletins

Peak Streamflow for the Nation

USGS 11475560 ELDER C NR BRANSCOMB CA

Mendocino County, California
Hydrologic Unit Code 18010106
Latitude  39°43'47", Longitude 123°38'34" NAD27
Drainage area 6.50  square miles
Gage datum 1,391.08 feet above NGVD29
Output formats
Table
Graph
Tab-separated file
peakfq (watstore) format
Reselect output format
Water
Year
Date Gage
Height
(feet)
Stream-
flow
(cfs)
1965 1964-12-22 11.41 3,6607
1968 1968-01-15 6.01 389
1969 1969-01-12   940
1970 1970-01-23 8.31 1,250
1971 1970-12-03 8.45 1,320
1972 1972-01-22 7.22 728
1973 1973-01-16 6.39 457
1974 1974-03-29 9.77 2,280
1975 1975-03-18 7.64 906
1976 1976-02-26 6.29 376
1977 1977-03-09 4.20 25.0
1978 1977-12-14 7.15 687
1979 1979-01-11 5.62 254
1980 1980-01-12 6.40 411
1981 1981-01-28 6.25 371
1982 1981-12-19 8.05 1,120
1983 1982-12-16 7.06 647
1984 1983-12-06 5.93 288
1985 1985-02-08 6.09 327
1986 1986-02-17 8.66 1,480
1987 1987-03-12 5.50 192
1988 1987-12-10 6.84 562
1989 1988-11-22 6.23 361
1990 1990-01-08 5.74 240
1991 1991-03-04 5.56 203
1992 1992-02-20 5.17 135
1993 1993-01-20 9.45 2,040
1994 1993-12-08 5.57 187
1995 1995-01-09 7.84 1,270
1996 1995-12-12 6.45 586
1997 1996-12-30 9.88 2,480
1998 1998-01-17 6.31 524
1999 1999-02-07 6.52 605
2000 2000-01-16 6.46 581
2001 2001-02-20 5.74 326
2002 2001-12-05 6.30 520
2003 2002-12-16 7.45 1,020
2004 2004-02-17 6.90 770
2005 2004-12-08 6.31 524
2006 2005-12-31 7.92 1,260
2007 2007-02-25 5.29 203
2008 2008-01-04 6.25 502
2009 2009-02-23 5.81 349
2010 2010-01-25 6.05 430
2011 2010-12-28 6.02 419
2012 2012-01-20 6.50 597
2013 2012-12-02 7.87 1,230
2014 2014-03-29 5.60 284
2015 2015-02-07 5.86 361
2016 2015-12-22 6.41 563
2017 2017-01-10 7.56 1,190
2018 2018-04-07 5.36 225
2019 2019-02-27 7.70 1,290
2020 2020-01-26 4.82 119
2021 2021-02-02 4.48 74.8
?
  Peak Streamflow Qualification Codes.